createdAt,value
2017-12-13T00:00:57.360Z,0
2017-12-13T00:02:07.341Z,0
2017-12-13T00:03:17.343Z,0
2017-12-13T00:04:27.413Z,0
2017-12-13T00:05:37.403Z,0
2017-12-13T00:06:47.143Z,0
2017-12-13T00:07:57.125Z,0
2017-12-13T00:09:06.844Z,0
2017-12-13T00:10:16.828Z,0
2017-12-13T00:11:26.386Z,0
2017-12-13T00:12:35.572Z,0
2017-12-13T00:13:45.027Z,0
2017-12-13T00:14:54.745Z,0
2017-12-13T00:16:04.466Z,0
2017-12-13T00:17:14.185Z,0
2017-12-13T00:18:23.901Z,0
2017-12-13T00:19:33.621Z,0
2017-12-13T00:20:43.593Z,0
2017-12-13T00:21:53.586Z,0
2017-12-13T00:23:03.303Z,0
2017-12-13T00:24:12.760Z,0
2017-12-13T00:25:22.993Z,0
2017-12-13T00:26:32.446Z,0
2017-12-13T00:27:42.167Z,0
2017-12-13T00:28:51.620Z,0
2017-12-13T00:30:00.810Z,0
2017-12-13T00:31:10.529Z,0
2017-12-13T00:32:20.547Z,0
2017-12-13T00:33:30.529Z,0
2017-12-13T00:34:40.284Z,0
2017-12-13T00:35:49.755Z,0
2017-12-13T00:36:59.473Z,0
2017-12-13T00:38:08.932Z,0
2017-12-13T00:39:18.383Z,0
2017-12-13T00:40:28.101Z,0
2017-12-13T00:41:38.070Z,0
2017-12-13T00:42:47.788Z,0
2017-12-13T00:43:57.767Z,0
2017-12-13T00:45:07.217Z,0
2017-12-13T00:46:16.680Z,0
2017-12-13T00:47:26.404Z,0
2017-12-13T00:48:36.124Z,0
2017-12-13T00:49:45.854Z,0
2017-12-13T00:50:55.842Z,0
2017-12-13T00:52:05.567Z,0
2017-12-13T00:53:15.552Z,0
2017-12-13T00:54:25.541Z,0
2017-12-13T00:55:35.261Z,0
2017-12-13T00:56:45.348Z,0
2017-12-13T00:57:55.069Z,0
2017-12-13T00:59:05.055Z,0
2017-12-13T01:00:15.049Z,0
2017-12-13T01:01:24.807Z,0
2017-12-13T01:02:34.955Z,0
2017-12-13T01:03:44.943Z,0
2017-12-13T01:04:54.932Z,0
2017-12-13T01:06:04.677Z,0
2017-12-13T01:07:14.404Z,0
2017-12-13T01:08:23.866Z,0
2017-12-13T01:09:33.854Z,0
2017-12-13T01:10:43.568Z,0
2017-12-13T01:11:53.289Z,0
2017-12-13T01:13:03.014Z,0
2017-12-13T01:14:13.007Z,0
2017-12-13T01:15:23.003Z,0
2017-12-13T01:16:32.987Z,0
2017-12-13T01:17:42.438Z,0
2017-12-13T01:18:51.875Z,0
2017-12-13T01:20:01.630Z,0
2017-12-13T01:21:11.612Z,0
2017-12-13T01:22:21.604Z,0
2017-12-13T01:23:31.057Z,0
2017-12-13T01:24:41.040Z,0
2017-12-13T01:25:51.026Z,0
2017-12-13T01:27:00.742Z,0
2017-12-13T01:28:09.931Z,0
2017-12-13T01:29:19.915Z,0
2017-12-13T01:30:29.633Z,0
2017-12-13T01:31:39.617Z,0
2017-12-13T01:32:49.334Z,0
2017-12-13T01:33:59.570Z,0
2017-12-13T01:35:09.592Z,0
2017-12-13T01:36:19.047Z,0
2017-12-13T01:37:29.043Z,0
2017-12-13T01:38:38.498Z,0
2017-12-13T01:39:48.219Z,0
2017-12-13T01:40:58.233Z,0
2017-12-13T01:42:08.241Z,0
2017-12-13T01:43:18.264Z,0
2017-12-13T01:44:28.256Z,0
2017-12-13T01:45:38.242Z,0
2017-12-13T01:46:47.959Z,0
2017-12-13T01:47:57.693Z,0
2017-12-13T01:49:07.410Z,0
2017-12-13T01:50:16.860Z,0
2017-12-13T01:51:26.844Z,0
2017-12-13T01:52:36.031Z,0
2017-12-13T01:53:45.784Z,0
2017-12-13T01:54:55.530Z,0
2017-12-13T01:56:04.731Z,0
2017-12-13T01:57:14.752Z,0
2017-12-13T01:58:24.744Z,0
2017-12-13T01:59:34.463Z,0
2017-12-13T02:00:43.917Z,0
2017-12-13T02:01:53.641Z,0
2017-12-13T02:03:03.619Z,0
2017-12-13T02:04:13.071Z,0
2017-12-13T02:05:22.794Z,0
2017-12-13T02:06:32.782Z,0
2017-12-13T02:07:42.234Z,0
2017-12-13T02:08:52.276Z,0
2017-12-13T02:10:01.729Z,0
2017-12-13T02:11:11.463Z,0
2017-12-13T02:12:21.219Z,0
2017-12-13T02:13:31.206Z,0
2017-12-13T02:14:41.199Z,0
2017-12-13T02:15:51.185Z,0
2017-12-13T02:17:00.649Z,0
2017-12-13T02:18:10.108Z,0
2017-12-13T02:19:20.137Z,0
2017-12-13T02:20:30.130Z,0
2017-12-13T02:22:11.939Z,0
2017-12-13T02:23:53.477Z,0
2017-12-13T02:25:03.473Z,0
2017-12-13T02:26:13.188Z,0
2017-12-13T02:27:23.177Z,0
2017-12-13T02:28:33.167Z,0
2017-12-13T02:29:43.173Z,0
2017-12-13T02:30:52.893Z,0
2017-12-13T02:32:01.814Z,0
2017-12-13T02:33:11.809Z,0
2017-12-13T02:34:21.865Z,0
2017-12-13T02:35:31.865Z,0
2017-12-13T02:36:42.112Z,0
2017-12-13T02:37:52.111Z,0
2017-12-13T02:39:01.838Z,0
2017-12-13T02:40:11.295Z,0
2017-12-13T02:41:21.019Z,0
2017-12-13T02:42:30.760Z,0
2017-12-13T02:43:40.227Z,0
2017-12-13T02:44:49.974Z,0
2017-12-13T02:45:59.974Z,0
2017-12-13T02:47:09.719Z,0
2017-12-13T02:48:19.457Z,0
2017-12-13T02:49:29.111Z,0
2017-12-13T02:50:38.853Z,0
2017-12-13T02:51:49.930Z,0
2017-12-13T02:52:59.649Z,0
2017-12-13T02:54:09.602Z,0
2017-12-13T02:55:19.077Z,0
2017-12-13T02:56:29.064Z,0
2017-12-13T02:57:38.768Z,0
2017-12-13T02:58:48.865Z,0
2017-12-13T02:59:58.321Z,0
2017-12-13T03:01:07.244Z,0
2017-12-13T03:02:16.694Z,0
2017-12-13T03:03:26.674Z,0
2017-12-13T03:04:36.677Z,0
2017-12-13T03:05:46.397Z,0
2017-12-13T03:06:56.116Z,0
2017-12-13T03:08:05.833Z,0
2017-12-13T03:09:15.814Z,0
2017-12-13T03:10:25.530Z,0
2017-12-13T03:11:35.272Z,0
2017-12-13T03:12:44.711Z,0
2017-12-13T03:13:54.427Z,0
2017-12-13T03:15:04.140Z,0
2017-12-13T03:16:13.585Z,0
2017-12-13T03:17:23.604Z,0
2017-12-13T03:18:33.585Z,0
2017-12-13T03:19:43.301Z,0
2017-12-13T03:20:53.046Z,0
2017-12-13T03:22:02.500Z,0
2017-12-13T03:23:12.480Z,0
2017-12-13T03:24:22.204Z,0
2017-12-13T03:25:32.186Z,0
2017-12-13T03:26:42.168Z,0
2017-12-13T03:27:51.872Z,0
2017-12-13T03:29:01.054Z,0
2017-12-13T03:30:10.565Z,0
2017-12-13T03:31:20.301Z,0
2017-12-13T03:32:30.018Z,0
2017-12-13T03:33:40.000Z,0
2017-12-13T03:34:49.979Z,0
2017-12-13T03:35:59.959Z,0
2017-12-13T03:37:09.938Z,0
2017-12-13T03:38:19.917Z,0
2017-12-13T03:39:29.960Z,0
2017-12-13T03:40:39.673Z,0
2017-12-13T03:41:49.389Z,0
2017-12-13T03:42:59.107Z,0
2017-12-13T03:44:08.819Z,0
2017-12-13T03:45:18.516Z,0
2017-12-13T03:46:28.499Z,0
2017-12-13T03:47:38.209Z,0
2017-12-13T03:48:47.918Z,0
2017-12-13T03:49:57.368Z,0
2017-12-13T03:51:07.141Z,0
2017-12-13T03:52:17.124Z,0
2017-12-13T03:53:26.834Z,0
2017-12-13T03:54:36.817Z,0
2017-12-13T03:55:46.794Z,0
2017-12-13T03:56:56.791Z,0
2017-12-13T03:58:06.790Z,0
2017-12-13T03:59:16.763Z,0
2017-12-13T04:00:26.741Z,0
2017-12-13T04:01:36.462Z,0
2017-12-13T04:02:46.745Z,0
2017-12-13T04:03:56.721Z,0
2017-12-13T04:05:06.702Z,0
2017-12-13T04:06:16.415Z,0
2017-12-13T04:07:26.399Z,0
2017-12-13T04:08:36.115Z,0
2017-12-13T04:09:45.301Z,0
2017-12-13T04:10:55.275Z,0
2017-12-13T04:12:04.983Z,0
2017-12-13T04:13:14.969Z,0
2017-12-13T04:14:24.421Z,0
2017-12-13T04:15:34.401Z,0
2017-12-13T04:16:44.113Z,0
2017-12-13T04:17:53.825Z,0
2017-12-13T04:19:03.537Z,0
2017-12-13T04:20:13.284Z,0
2017-12-13T04:21:22.993Z,0
2017-12-13T04:22:32.708Z,0
2017-12-13T04:23:42.415Z,0
2017-12-13T04:24:52.133Z,0
2017-12-13T04:26:01.831Z,0
2017-12-13T04:27:11.807Z,0
2017-12-13T04:28:21.786Z,0
2017-12-13T04:29:31.758Z,0
2017-12-13T04:30:41.467Z,0
2017-12-13T04:31:51.195Z,0
2017-12-13T04:33:00.909Z,0
2017-12-13T04:34:10.894Z,0
2017-12-13T04:35:20.607Z,0
2017-12-13T04:36:30.588Z,0
2017-12-13T04:37:40.307Z,0
2017-12-13T04:38:50.021Z,0
2017-12-13T04:39:59.733Z,0
2017-12-13T04:41:09.181Z,0
2017-12-13T04:42:18.634Z,0
2017-12-13T04:43:28.619Z,0
2017-12-13T04:44:38.593Z,0
2017-12-13T04:45:48.570Z,0
2017-12-13T04:46:58.292Z,0
2017-12-13T04:48:08.012Z,0
2017-12-13T04:49:18.092Z,0
2017-12-13T04:50:28.072Z,0
2017-12-13T04:51:37.790Z,0
2017-12-13T04:52:47.242Z,0
2017-12-13T04:53:56.953Z,0
2017-12-13T04:55:07.189Z,0
2017-12-13T04:56:16.639Z,0
2017-12-13T04:57:26.363Z,0
2017-12-13T04:58:36.078Z,0
2017-12-13T04:59:46.063Z,0
2017-12-13T05:00:55.791Z,0
2017-12-13T05:02:05.519Z,0
2017-12-13T05:03:15.244Z,0
2017-12-13T05:04:25.231Z,0
2017-12-13T05:05:34.419Z,0
2017-12-13T05:06:44.397Z,0
2017-12-13T05:07:53.316Z,0
2017-12-13T05:09:03.041Z,0
2017-12-13T05:10:13.017Z,0
2017-12-13T05:11:22.736Z,0
2017-12-13T05:12:32.559Z,0
2017-12-13T05:13:42.009Z,0
2017-12-13T05:14:51.725Z,0
2017-12-13T05:16:01.170Z,0
2017-12-13T05:17:10.887Z,0
2017-12-13T05:18:20.867Z,0
2017-12-13T05:19:30.577Z,0
2017-12-13T05:20:40.551Z,0
2017-12-13T05:21:50.524Z,0
2017-12-13T05:23:00.241Z,0
2017-12-13T05:24:09.689Z,0
2017-12-13T05:25:19.407Z,0
2017-12-13T05:26:28.860Z,0
2017-12-13T05:27:38.594Z,0
2017-12-13T05:28:48.316Z,0
2017-12-13T05:29:57.759Z,0
2017-12-13T05:31:07.475Z,0
2017-12-13T05:32:17.193Z,0
2017-12-13T05:33:26.920Z,0
2017-12-13T05:34:36.903Z,0
2017-12-13T05:35:46.358Z,0
2017-12-13T05:36:56.331Z,0
2017-12-13T05:38:06.040Z,0
2017-12-13T05:39:16.018Z,0
2017-12-13T05:40:25.995Z,0
2017-12-13T05:41:35.446Z,0
2017-12-13T05:42:45.157Z,0
2017-12-13T05:43:54.873Z,0
2017-12-13T05:45:04.355Z,0
2017-12-13T05:46:13.850Z,0
2017-12-13T05:47:23.299Z,0
2017-12-13T05:48:32.807Z,0
2017-12-13T05:49:42.798Z,0
2017-12-13T05:50:52.246Z,0
2017-12-13T05:52:01.694Z,0
2017-12-13T05:53:11.140Z,0
2017-12-13T05:54:20.861Z,0
2017-12-13T05:55:30.571Z,0
2017-12-13T05:56:40.031Z,0
2017-12-13T05:57:49.752Z,0
2017-12-13T05:58:59.736Z,0
2017-12-13T06:00:09.448Z,0
2017-12-13T06:01:18.897Z,0
2017-12-13T06:02:28.345Z,0
2017-12-13T06:03:38.097Z,0
2017-12-13T06:04:48.337Z,0
2017-12-13T06:05:58.311Z,0
2017-12-13T06:07:08.293Z,0
2017-12-13T06:08:18.012Z,0
2017-12-13T06:09:27.457Z,0
2017-12-13T06:10:37.437Z,0
2017-12-13T06:11:46.628Z,0
2017-12-13T06:12:56.616Z,0
2017-12-13T06:14:06.066Z,0
2017-12-13T06:15:15.511Z,0
2017-12-13T06:16:24.958Z,0
2017-12-13T06:17:34.930Z,0
2017-12-13T06:18:44.911Z,0
2017-12-13T06:19:54.886Z,0
2017-12-13T06:21:04.867Z,0
2017-12-13T06:22:15.093Z,0
2017-12-13T06:23:24.806Z,0
2017-12-13T06:24:33.988Z,0
2017-12-13T06:25:43.440Z,0
2017-12-13T06:26:52.628Z,0
2017-12-13T06:28:02.224Z,0
2017-12-13T06:29:11.945Z,0
2017-12-13T06:30:21.397Z,0
2017-12-13T06:31:31.105Z,0
2017-12-13T06:32:40.829Z,0
2017-12-13T06:33:50.548Z,0
2017-12-13T06:35:00.534Z,0
2017-12-13T06:36:10.360Z,0
2017-12-13T06:37:20.403Z,0
2017-12-13T06:38:30.381Z,0
2017-12-13T06:39:40.363Z,0
2017-12-13T06:40:50.338Z,0
2017-12-13T06:42:00.044Z,0
2017-12-13T06:43:10.021Z,0
2017-12-13T06:44:19.886Z,0
2017-12-13T06:45:30.293Z,0
2017-12-13T06:46:40.336Z,0
2017-12-13T06:47:50.408Z,0
2017-12-13T06:49:00.148Z,0
2017-12-13T06:50:09.618Z,0
2017-12-13T06:51:19.594Z,0
2017-12-13T06:52:29.314Z,0
2017-12-13T06:53:39.024Z,0
2017-12-13T06:54:48.469Z,0
2017-12-13T06:55:58.288Z,0
2017-12-13T06:57:08.272Z,0
2017-12-13T06:58:17.718Z,0
2017-12-13T06:59:27.699Z,0
2017-12-13T07:00:37.414Z,0
2017-12-13T07:01:47.393Z,0
2017-12-13T07:02:57.520Z,0
2017-12-13T07:04:07.456Z,0
2017-12-13T07:05:17.185Z,0
2017-12-13T07:06:27.175Z,0
2017-12-13T07:07:36.888Z,0
2017-12-13T07:08:46.443Z,0
2017-12-13T07:09:56.154Z,0
2017-12-13T07:11:05.886Z,0
2017-12-13T07:12:15.595Z,0
2017-12-13T07:13:25.318Z,0
2017-12-13T07:14:35.343Z,0
2017-12-13T07:15:45.058Z,0
2017-12-13T07:16:55.046Z,0
2017-12-13T07:18:05.023Z,0
2017-12-13T07:19:14.472Z,0
2017-12-13T07:20:23.944Z,0
2017-12-13T07:21:33.397Z,0
2017-12-13T07:22:43.382Z,0
2017-12-13T07:23:53.124Z,0
2017-12-13T07:25:02.837Z,0
2017-12-13T07:26:12.836Z,0
2017-12-13T07:27:23.011Z,0
2017-12-13T07:28:33.070Z,0
2017-12-13T07:29:42.515Z,0
2017-12-13T07:30:51.980Z,0
2017-12-13T07:32:01.692Z,0
2017-12-13T07:33:10.880Z,0
2017-12-13T07:34:20.707Z,5
2017-12-13T07:35:30.689Z,5
2017-12-13T07:36:40.435Z,5
2017-12-13T07:37:50.153Z,5
2017-12-13T07:39:00.132Z,5
2017-12-13T07:40:09.317Z,5
2017-12-13T07:41:18.779Z,5
2017-12-13T07:42:28.771Z,5
2017-12-13T07:43:38.766Z,5
2017-12-13T07:44:47.962Z,5
2017-12-13T07:45:57.944Z,5
2017-12-13T07:47:08.554Z,5
2017-12-13T07:48:18.596Z,5
2017-12-13T07:49:28.321Z,5
2017-12-13T07:50:38.495Z,5
2017-12-13T07:51:48.239Z,5
2017-12-13T07:52:57.954Z,5
2017-12-13T07:54:07.453Z,5
2017-12-13T07:55:17.493Z,5
2017-12-13T07:56:27.240Z,5
2017-12-13T07:57:37.075Z,5
2017-12-13T07:58:46.855Z,10
2017-12-13T07:59:56.431Z,10
2017-12-13T08:01:06.155Z,10
2017-12-13T08:02:16.079Z,10
2017-12-13T08:03:25.838Z,10
2017-12-13T08:04:35.903Z,10
2017-12-13T08:05:45.616Z,10
2017-12-13T08:06:55.619Z,15
2017-12-13T08:08:05.436Z,15
2017-12-13T08:09:15.154Z,15
2017-12-13T08:10:24.871Z,15
2017-12-13T08:11:34.325Z,20
2017-12-13T08:12:44.261Z,20
2017-12-13T08:13:54.238Z,20
2017-12-13T08:15:04.222Z,25
2017-12-13T08:16:13.753Z,25
2017-12-13T08:17:23.815Z,25
2017-12-13T08:18:33.539Z,25
2017-12-13T08:19:42.993Z,25
2017-12-13T08:20:52.711Z,30
2017-12-13T08:22:02.719Z,30
2017-12-13T08:23:12.440Z,30
2017-12-13T08:24:22.444Z,30
2017-12-13T08:25:32.159Z,30
2017-12-13T08:26:41.952Z,30
2017-12-13T08:27:51.681Z,30
2017-12-13T08:29:01.516Z,30
2017-12-13T08:30:11.290Z,35
2017-12-13T08:31:21.204Z,30
2017-12-13T08:32:30.929Z,25
2017-12-13T08:33:40.686Z,30
2017-12-13T08:34:50.146Z,30
2017-12-13T08:35:59.863Z,30
2017-12-13T08:37:09.575Z,30
2017-12-13T08:38:19.562Z,30
2017-12-13T08:39:29.280Z,25
2017-12-13T08:40:39.315Z,20
2017-12-13T08:41:49.034Z,20
2017-12-13T08:42:59.045Z,15
2017-12-13T08:44:09.950Z,10
2017-12-13T08:45:20.589Z,5
2017-12-13T08:46:30.303Z,5
2017-12-13T08:47:40.015Z,5
2017-12-13T08:48:49.730Z,5
2017-12-13T08:49:59.450Z,10
2017-12-13T08:51:09.436Z,10
2017-12-13T08:52:18.886Z,5
2017-12-13T08:53:28.909Z,5
2017-12-13T08:54:38.889Z,5
2017-12-13T08:55:48.353Z,5
2017-12-13T08:56:58.129Z,5
2017-12-13T08:58:07.850Z,10
2017-12-13T08:59:17.382Z,10
2017-12-13T09:00:27.364Z,10
2017-12-13T09:01:37.376Z,15
2017-12-13T09:02:46.828Z,15
2017-12-13T09:03:56.605Z,10
2017-12-13T09:05:06.585Z,10
2017-12-13T09:06:16.571Z,15
2017-12-13T09:07:26.285Z,15
2017-12-13T09:08:36.119Z,15
2017-12-13T09:09:46.166Z,20
2017-12-13T09:10:55.881Z,20
2017-12-13T09:12:05.602Z,25
2017-12-13T09:13:15.589Z,25
2017-12-13T09:14:25.815Z,35
2017-12-13T09:15:35.593Z,35
2017-12-13T09:16:45.309Z,40
2017-12-13T09:17:55.294Z,40
2017-12-13T09:19:05.284Z,40
2017-12-13T09:20:15.007Z,40
2017-12-13T09:21:24.993Z,40
2017-12-13T09:22:34.971Z,40
2017-12-13T09:23:44.955Z,35
2017-12-13T09:24:54.940Z,35
2017-12-13T09:26:04.657Z,35
2017-12-13T09:27:14.389Z,35
2017-12-13T09:28:24.275Z,35
2017-12-13T09:29:34.293Z,35
2017-12-13T09:30:44.013Z,30
2017-12-13T09:31:53.993Z,30
2017-12-13T09:33:03.970Z,25
2017-12-13T09:34:13.697Z,20
2017-12-13T09:35:23.678Z,20
2017-12-13T09:36:33.772Z,15
2017-12-13T09:37:43.769Z,15
2017-12-13T09:38:53.745Z,10
2017-12-13T09:40:03.488Z,10
2017-12-13T09:41:13.204Z,10
2017-12-13T09:42:22.933Z,10
2017-12-13T09:43:32.383Z,5
2017-12-13T09:44:41.832Z,5
2017-12-13T09:45:51.281Z,5
2017-12-13T09:47:01.268Z,10
2017-12-13T09:48:10.461Z,10
2017-12-13T09:49:20.180Z,10
2017-12-13T09:50:30.173Z,10
2017-12-13T09:51:39.893Z,10
2017-12-13T09:52:49.615Z,10
2017-12-13T09:53:59.591Z,15
2017-12-13T09:55:09.588Z,15
2017-12-13T09:56:19.582Z,15
2017-12-13T09:57:29.343Z,15
2017-12-13T09:58:39.392Z,15
2017-12-13T09:59:49.382Z,20
2017-12-13T10:00:59.095Z,20
2017-12-13T10:02:09.071Z,20
2017-12-13T10:03:18.522Z,20
2017-12-13T10:04:28.235Z,20
2017-12-13T10:05:38.013Z,20
2017-12-13T10:06:47.463Z,20
2017-12-13T10:07:56.651Z,20
2017-12-13T10:09:06.476Z,15
2017-12-13T10:10:15.886Z,15
2017-12-13T10:11:25.864Z,15
2017-12-13T10:12:35.852Z,15
2017-12-13T10:13:45.650Z,15
2017-12-13T10:14:55.165Z,15
2017-12-13T10:16:05.157Z,15
2017-12-13T10:17:15.150Z,15
2017-12-13T10:18:24.869Z,15
2017-12-13T10:19:34.610Z,15
2017-12-13T10:20:44.438Z,15
2017-12-13T10:21:54.953Z,15
2017-12-13T10:23:04.816Z,15
2017-12-13T10:24:14.278Z,15
2017-12-13T10:25:24.022Z,15
2017-12-13T10:26:33.816Z,15
2017-12-13T10:27:43.317Z,15
2017-12-13T10:28:53.385Z,20
2017-12-13T10:30:02.885Z,20
2017-12-13T10:31:12.326Z,20
2017-12-13T10:32:22.174Z,20
2017-12-13T10:33:32.003Z,25
2017-12-13T10:34:41.459Z,25
2017-12-13T10:35:51.187Z,25
2017-12-13T10:37:01.203Z,25
2017-12-13T10:38:10.924Z,25
2017-12-13T10:39:20.375Z,25
2017-12-13T10:40:30.618Z,25
2017-12-13T10:41:40.399Z,25
2017-12-13T10:42:50.168Z,25
2017-12-13T10:43:59.908Z,25
2017-12-13T10:45:10.096Z,25
2017-12-13T10:46:19.875Z,25
2017-12-13T10:47:29.870Z,25
2017-12-13T10:48:39.234Z,25
2017-12-13T10:49:48.991Z,25
2017-12-13T10:50:58.454Z,25
2017-12-13T10:52:08.166Z,25
2017-12-13T10:53:18.067Z,25
2017-12-13T10:54:28.103Z,25
2017-12-13T10:55:38.085Z,25
2017-12-13T10:56:47.551Z,25
2017-12-13T10:57:57.317Z,25
2017-12-13T10:59:07.345Z,25
2017-12-13T11:00:17.504Z,25
2017-12-13T11:01:27.506Z,25
2017-12-13T11:02:36.973Z,25
2017-12-13T11:03:46.752Z,25
2017-12-13T11:04:56.820Z,20
2017-12-13T11:06:06.812Z,20
2017-12-13T11:07:16.790Z,20
2017-12-13T11:08:26.781Z,20
2017-12-13T11:09:36.761Z,20
2017-12-13T11:10:46.741Z,20
2017-12-13T11:11:56.726Z,20
2017-12-13T11:13:06.714Z,20
2017-12-13T11:14:16.433Z,20
2017-12-13T11:15:26.151Z,20
2017-12-13T11:16:36.142Z,20
2017-12-13T11:17:45.611Z,25
2017-12-13T11:18:55.330Z,25
2017-12-13T11:20:05.315Z,25
2017-12-13T11:21:14.498Z,25
2017-12-13T11:22:23.946Z,25
2017-12-13T11:23:33.917Z,30
2017-12-13T11:24:43.631Z,30
2017-12-13T11:25:53.614Z,30
2017-12-13T11:27:03.336Z,30
2017-12-13T11:28:13.052Z,30
2017-12-13T11:29:22.782Z,30
2017-12-13T11:30:32.757Z,35
2017-12-13T11:31:42.736Z,35
2017-12-13T11:32:52.445Z,35
2017-12-13T11:34:02.160Z,35
2017-12-13T11:35:11.617Z,35
2017-12-13T11:36:21.337Z,35
2017-12-13T11:37:31.090Z,35
2017-12-13T11:38:41.079Z,35
2017-12-13T11:39:50.790Z,35
2017-12-13T11:41:00.510Z,30
2017-12-13T11:42:09.966Z,30
2017-12-13T11:43:19.875Z,25
2017-12-13T11:44:29.863Z,15
2017-12-13T11:45:39.583Z,15
2017-12-13T11:46:49.605Z,10
2017-12-13T11:47:59.060Z,10
2017-12-13T11:49:08.812Z,10
2017-12-13T11:50:18.781Z,10
2017-12-13T11:51:28.491Z,10
2017-12-13T11:52:38.306Z,10
2017-12-13T11:53:48.020Z,10
2017-12-13T11:54:57.752Z,10
2017-12-13T11:56:07.465Z,15
2017-12-13T11:57:17.453Z,15
2017-12-13T11:58:26.927Z,20
2017-12-13T11:59:36.376Z,20
2017-12-13T12:00:45.850Z,25
2017-12-13T12:01:55.837Z,25
2017-12-13T12:03:05.603Z,25
2017-12-13T12:04:15.339Z,20
2017-12-13T12:05:25.052Z,20
2017-12-13T12:06:35.119Z,20
2017-12-13T12:07:44.859Z,15
2017-12-13T12:08:54.585Z,15
2017-12-13T12:10:04.569Z,15
2017-12-13T12:11:14.796Z,10
2017-12-13T12:12:24.512Z,10
2017-12-13T12:13:34.500Z,10
2017-12-13T12:14:44.490Z,5
2017-12-13T12:15:54.468Z,5
2017-12-13T12:17:04.505Z,5
2017-12-13T12:18:14.509Z,10
2017-12-13T12:19:24.503Z,10
2017-12-13T12:20:33.951Z,15
2017-12-13T12:21:43.940Z,15
2017-12-13T12:22:53.942Z,20
2017-12-13T12:24:03.668Z,20
2017-12-13T12:25:13.383Z,20
2017-12-13T12:26:23.207Z,20
2017-12-13T12:27:33.246Z,20
2017-12-13T12:28:42.771Z,20
2017-12-13T12:29:52.866Z,15
2017-12-13T12:31:02.710Z,15
2017-12-13T12:32:12.582Z,15
2017-12-13T12:33:22.417Z,15
2017-12-13T12:34:32.033Z,15
2017-12-13T12:35:41.842Z,15
2017-12-13T12:36:51.875Z,15
2017-12-13T12:38:02.060Z,10
2017-12-13T12:39:11.829Z,10
2017-12-13T12:40:21.646Z,10
2017-12-13T12:41:31.747Z,15
2017-12-13T12:42:41.960Z,15
2017-12-13T12:43:51.763Z,15
2017-12-13T12:45:01.515Z,15
2017-12-13T12:46:11.518Z,15
2017-12-13T12:47:21.261Z,15
2017-12-13T12:48:31.248Z,15
2017-12-13T12:49:41.249Z,10
2017-12-13T12:50:51.374Z,15
2017-12-13T12:52:01.380Z,10
2017-12-13T12:53:10.875Z,10
2017-12-13T12:54:20.601Z,10
2017-12-13T12:55:30.398Z,10
2017-12-13T12:56:40.462Z,10
2017-12-13T12:57:50.155Z,10
2017-12-13T12:58:59.998Z,10
2017-12-13T13:00:09.741Z,10
2017-12-13T13:01:19.509Z,10
2017-12-13T13:02:29.310Z,10
2017-12-13T13:03:39.346Z,10
2017-12-13T13:04:48.846Z,5
2017-12-13T13:05:58.584Z,5
2017-12-13T13:07:08.403Z,5
2017-12-13T13:08:17.980Z,10
2017-12-13T13:09:28.190Z,10
2017-12-13T13:10:38.713Z,10
2017-12-13T13:11:48.803Z,10
2017-12-13T13:12:58.439Z,5
2017-12-13T13:14:08.470Z,10
2017-12-13T13:15:18.329Z,5
2017-12-13T13:16:28.457Z,5
2017-12-13T13:17:37.946Z,5
2017-12-13T13:18:47.953Z,5
2017-12-13T13:19:57.445Z,10
2017-12-13T13:21:07.471Z,10
2017-12-13T13:22:17.220Z,10
2017-12-13T13:23:27.222Z,10
2017-12-13T13:24:36.963Z,10
2017-12-13T13:25:46.311Z,10
2017-12-13T13:26:56.362Z,10
2017-12-13T13:28:06.394Z,10
2017-12-13T13:29:16.406Z,10
2017-12-13T13:30:26.478Z,10
2017-12-13T13:31:35.977Z,10
2017-12-13T13:32:46.065Z,10
2017-12-13T13:33:56.072Z,10
2017-12-13T13:35:05.821Z,10
2017-12-13T13:36:15.938Z,10
2017-12-13T13:37:25.749Z,10
2017-12-13T13:38:35.506Z,10
2017-12-13T13:39:45.237Z,10
2017-12-13T13:40:54.950Z,10
2017-12-13T13:42:04.730Z,10
2017-12-13T13:43:14.508Z,5
2017-12-13T13:44:23.976Z,5
2017-12-13T13:45:33.996Z,5
2017-12-13T13:46:43.446Z,5
2017-12-13T13:47:53.232Z,5
2017-12-13T13:49:03.251Z,5
2017-12-13T13:50:12.759Z,5
2017-12-13T13:51:22.562Z,5
2017-12-13T13:52:32.644Z,5
2017-12-13T13:53:42.467Z,5
2017-12-13T13:54:51.924Z,5
2017-12-13T13:56:01.680Z,5
2017-12-13T13:57:11.713Z,5
2017-12-13T13:58:21.243Z,5
2017-12-13T13:59:30.772Z,5
2017-12-13T14:00:40.255Z,5
2017-12-13T14:01:49.469Z,5
2017-12-13T14:02:59.248Z,5
2017-12-13T14:04:09.164Z,5
2017-12-13T14:05:19.001Z,0
2017-12-13T14:06:28.800Z,5
2017-12-13T14:07:39.054Z,5
2017-12-13T14:08:48.885Z,5
2017-12-13T14:09:58.408Z,0
2017-12-13T14:11:07.912Z,0
2017-12-13T14:12:18.014Z,5
2017-12-13T14:13:27.296Z,5
2017-12-13T14:14:36.837Z,5
2017-12-13T14:15:46.620Z,5
2017-12-13T14:16:56.741Z,5
2017-12-13T14:18:06.536Z,0
2017-12-13T14:19:16.104Z,0
2017-12-13T14:20:25.858Z,5
2017-12-13T14:21:35.641Z,5
2017-12-13T14:22:45.114Z,5
2017-12-13T14:23:54.644Z,5
2017-12-13T14:25:04.445Z,5
2017-12-13T14:26:14.207Z,5
2017-12-13T14:27:24.030Z,5
2017-12-13T14:28:34.099Z,5
2017-12-13T14:29:43.873Z,5
2017-12-13T14:30:53.078Z,5
2017-12-13T14:32:02.855Z,5
2017-12-13T14:33:12.355Z,5
2017-12-13T14:34:21.335Z,5
2017-12-13T14:35:31.379Z,5
2017-12-13T14:36:41.156Z,5
2017-12-13T14:37:51.789Z,5
2017-12-13T14:39:01.560Z,5
2017-12-13T14:40:11.374Z,5
2017-12-13T14:41:21.413Z,5
2017-12-13T14:42:30.886Z,5
2017-12-13T14:43:40.890Z,5
2017-12-13T14:44:50.893Z,5
2017-12-13T14:46:00.646Z,5
2017-12-13T14:47:10.429Z,5
2017-12-13T14:48:20.198Z,5
2017-12-13T14:49:29.921Z,5
2017-12-13T14:50:38.888Z,5
2017-12-13T14:51:48.395Z,10
2017-12-13T14:52:57.877Z,5
2017-12-13T14:54:08.338Z,5
2017-12-13T14:55:18.359Z,5
2017-12-13T14:56:28.158Z,5
2017-12-13T14:57:37.656Z,5
2017-12-13T14:58:47.434Z,5
2017-12-13T14:59:56.898Z,5
2017-12-13T15:01:06.666Z,0
2017-12-13T15:02:16.735Z,0
2017-12-13T15:03:26.011Z,0
2017-12-13T15:04:35.821Z,0
2017-12-13T15:05:45.937Z,0
2017-12-13T15:06:55.512Z,0
2017-12-13T15:08:04.830Z,0
2017-12-13T15:09:14.317Z,0
2017-12-13T15:10:23.809Z,0
2017-12-13T15:11:33.582Z,0
2017-12-13T15:12:43.347Z,0
2017-12-13T15:13:53.069Z,0
2017-12-13T15:15:02.297Z,0
2017-12-13T15:16:12.055Z,0
2017-12-13T15:17:21.534Z,0
2017-12-13T15:18:31.555Z,0
2017-12-13T15:19:41.128Z,0
2017-12-13T15:20:50.611Z,0
2017-12-13T15:22:00.624Z,0
2017-12-13T15:23:10.139Z,0
2017-12-13T15:24:19.894Z,0
2017-12-13T15:25:29.636Z,0
2017-12-13T15:26:39.373Z,0
2017-12-13T15:27:48.895Z,0
2017-12-13T15:28:58.682Z,0
2017-12-13T15:30:08.269Z,0
2017-12-13T15:31:17.845Z,0
2017-12-13T15:32:27.067Z,0
2017-12-13T15:33:36.841Z,0
2017-12-13T15:34:46.330Z,0
2017-12-13T15:35:56.115Z,0
2017-12-13T15:37:05.775Z,0
2017-12-13T15:38:15.834Z,0
2017-12-13T15:39:25.727Z,0
2017-12-13T15:40:35.203Z,0
2017-12-13T15:41:44.934Z,0
2017-12-13T15:42:54.896Z,0
2017-12-13T15:44:04.406Z,0
2017-12-13T15:45:13.884Z,0
2017-12-13T15:46:23.923Z,0
2017-12-13T15:47:33.682Z,0
2017-12-13T15:48:43.050Z,0
2017-12-13T15:49:52.569Z,0
2017-12-13T15:51:02.308Z,0
2017-12-13T15:52:12.077Z,0
2017-12-13T15:53:21.853Z,0
2017-12-13T15:54:32.128Z,0
2017-12-13T15:55:41.874Z,0
2017-12-13T15:56:51.905Z,0
2017-12-13T15:58:01.690Z,0
2017-12-13T15:59:11.500Z,0
2017-12-13T16:00:21.649Z,0
2017-12-13T16:01:31.419Z,0
2017-12-13T16:02:40.911Z,0
2017-12-13T16:03:50.407Z,0
2017-12-13T16:05:00.173Z,0
2017-12-13T16:06:09.945Z,0
2017-12-13T16:07:19.477Z,0
2017-12-13T16:08:29.604Z,0
2017-12-13T16:09:39.211Z,0
2017-12-13T16:10:48.442Z,0
2017-12-13T16:11:58.492Z,0
2017-12-13T16:13:07.754Z,0
2017-12-13T16:14:17.220Z,0
2017-12-13T16:15:26.999Z,0
2017-12-13T16:16:37.131Z,0
2017-12-13T16:17:46.628Z,0
2017-12-13T16:18:56.411Z,0
2017-12-13T16:20:06.461Z,0
2017-12-13T16:21:16.245Z,0
2017-12-13T16:22:26.275Z,0
2017-12-13T16:23:36.414Z,0
2017-12-13T16:24:46.467Z,0
2017-12-13T16:25:56.252Z,0
2017-12-13T16:27:06.347Z,0
2017-12-13T16:28:16.411Z,0
2017-12-13T16:29:26.453Z,0
2017-12-13T16:30:36.244Z,0
2017-12-13T16:31:46.114Z,0
2017-12-13T16:32:56.181Z,0
2017-12-13T16:34:05.700Z,0
2017-12-13T16:35:15.250Z,0
2017-12-13T16:36:25.331Z,0
2017-12-13T16:37:35.535Z,0
2017-12-13T16:38:45.654Z,0
2017-12-13T16:39:55.705Z,0
2017-12-13T16:41:05.768Z,0
2017-12-13T16:42:15.321Z,0
2017-12-13T16:43:25.441Z,0
2017-12-13T16:44:35.371Z,0
2017-12-13T16:45:45.192Z,0
2017-12-13T16:46:55.007Z,0
2017-12-13T16:48:05.045Z,0
2017-12-13T16:49:15.178Z,0
2017-12-13T16:50:24.990Z,0
2017-12-13T16:51:34.528Z,0
2017-12-13T16:52:44.321Z,0
2017-12-13T16:53:54.106Z,0
2017-12-13T16:55:03.679Z,0
2017-12-13T16:56:13.806Z,0
2017-12-13T16:57:23.565Z,0
2017-12-13T16:58:33.632Z,0
2017-12-13T16:59:43.227Z,0
2017-12-13T17:00:53.316Z,0
2017-12-13T17:02:03.128Z,0